Hlavní strana
METAR-TAF:

METAR-TAF

Letiště :

Treviso, Itálie

zeměpisná šířka: 45-41N, zeměpisná délka: 012-06E, výška: 45 m

Aktuální stav počasí

Zpráva byla vytvořena před 59 minutami, v 14:55 UTC
Východoseverovýchodní vítr 4 kt
Teplota 14°C
Vlhkost vzduchu 58%
Tlak 1026 hPa
Viditelnost 10 km a více
Žádná oblačnost pod 1500 m, nevyskytují se cumulonimby.

METAR: LIPS 161455Z 06004KT CAVOK 14/06 Q1026 RMK SKC VIS MIN 9999 WIND THR26 04003KT WIND THR08 07004KT BLU

Čas: 16:54 (15:54 UTC)

Předpověď počasí

Zpráva byla vytvořena před 1 hodinou a 54 minutami, v 14:00 UTC
Předpověď platná od 16 v 15 UTC do 16 v 24 UTC
Severovýchodní vítr 5 kt
Viditelnost 10 km a více
Žádná oblačnost pod 1500 m, nevyskytují se cumulonimby.

TAF: LIPS 161400Z 1615/1624 05005KT CAVOK

Stav a předpovědi počasí z více než 4 000 letišť (zprávy METAR a TAF).

Červené a žluté tečky na mapě představují dostupné meteorologické stanice.

Když kurzor umístíte na tečku, zobrazí se název stanice.

Pak kliknutím zobrazíte stav a předpověď počasí.

Chcete-li změnit mapu, kliknutím na zelené tlačítko se znaménkem +mapu přiblížíte, kliknutím na zelené tlačítko se znaménkem – mapu oddálíte a kliknutím na zelené šipky přejdete na sousední mapy.


METAR-TAF: